createdAt,value
2022-11-12T00:01:27.486Z,6.54
2022-11-12T00:04:48.339Z,6.58
2022-11-12T00:08:09.146Z,6.64
2022-11-12T00:11:30.146Z,6.69
2022-11-12T00:14:51.110Z,6.59
2022-11-12T00:18:11.913Z,6.58
2022-11-12T00:21:32.789Z,6.60
2022-11-12T00:24:53.472Z,6.62
2022-11-12T00:28:14.553Z,6.68
2022-11-12T00:31:35.522Z,6.67
2022-11-12T00:34:56.318Z,6.71
2022-11-12T00:38:17.231Z,6.81
2022-11-12T00:41:37.852Z,6.77
2022-11-12T00:44:58.598Z,6.85
2022-11-12T00:48:19.574Z,6.94
2022-11-12T00:51:40.580Z,6.92
2022-11-12T00:55:01.767Z,7.00
2022-11-12T00:58:23.009Z,6.98
2022-11-12T01:01:44.695Z,6.92
2022-11-12T01:05:05.863Z,6.91
2022-11-12T01:08:29.732Z,6.86
2022-11-12T01:11:51.150Z,6.92
2022-11-12T01:15:11.805Z,6.99
2022-11-12T01:18:32.953Z,6.99
2022-11-12T01:21:54.109Z,7.27
2022-11-12T01:25:15.014Z,7.24
2022-11-12T01:28:36.886Z,7.29
2022-11-12T01:31:58.054Z,7.39
2022-11-12T01:35:19.063Z,7.46
2022-11-12T01:38:42.126Z,7.50
2022-11-12T01:42:03.344Z,7.58
2022-11-12T01:45:24.481Z,7.64
2022-11-12T01:48:55.797Z,7.41
2022-11-12T01:52:22.984Z,7.36
2022-11-12T01:55:44.027Z,7.36
2022-11-12T01:59:27.609Z,7.27
2022-11-12T02:02:54.998Z,7.36
2022-11-12T02:06:16.581Z,7.50
2022-11-12T02:09:38.043Z,7.75
2022-11-12T02:13:17.710Z,7.86
2022-11-12T02:16:43.998Z,7.88
2022-11-12T02:20:08.215Z,7.83
2022-11-12T02:23:29.323Z,7.74
2022-11-12T02:26:54.408Z,7.77
2022-11-12T02:30:15.583Z,7.77
2022-11-12T02:33:36.418Z,7.81
2022-11-12T02:36:57.616Z,7.80
2022-11-12T02:40:18.647Z,7.74
2022-11-12T02:43:40.693Z,7.78
2022-11-12T02:47:01.606Z,7.73
2022-11-12T02:50:22.749Z,7.80
2022-11-12T02:53:43.847Z,7.73
2022-11-12T02:57:04.785Z,7.64
2022-11-12T03:00:25.837Z,7.58
2022-11-12T03:03:47.011Z,7.58
2022-11-12T03:07:07.969Z,7.60
2022-11-12T03:10:30.051Z,7.54
2022-11-12T03:13:51.153Z,7.47
2022-11-12T03:17:12.112Z,7.54
2022-11-12T03:20:34.806Z,7.64
2022-11-12T03:23:56.072Z,7.64
2022-11-12T03:27:16.914Z,7.49
2022-11-12T03:30:39.602Z,7.43
2022-11-12T03:34:00.607Z,7.40
2022-11-12T03:37:21.632Z,7.30
2022-11-12T03:40:42.598Z,7.30
2022-11-12T03:44:03.943Z,7.56
2022-11-12T03:47:24.797Z,7.54
2022-11-12T03:50:45.637Z,7.50
2022-11-12T03:54:13.674Z,7.48
2022-11-12T03:57:34.477Z,7.54
2022-11-12T04:00:55.472Z,7.55
2022-11-12T04:04:16.889Z,7.58
2022-11-12T04:08:13.245Z,7.55
2022-11-12T04:11:34.606Z,7.70
2022-11-12T04:14:55.668Z,7.75
2022-11-12T04:18:34.966Z,7.71
2022-11-12T04:22:06.643Z,7.71
2022-11-12T04:25:46.241Z,7.57
2022-11-12T04:29:26.205Z,7.51
2022-11-12T04:32:54.564Z,7.43
2022-11-12T04:36:15.894Z,7.39
2022-11-12T04:39:36.866Z,7.37
2022-11-12T04:43:16.303Z,7.57
2022-11-12T04:46:37.143Z,7.74
2022-11-12T04:49:58.350Z,7.81
2022-11-12T04:53:19.681Z,7.71
2022-11-12T04:56:40.502Z,7.57
2022-11-12T05:00:01.627Z,7.55
2022-11-12T05:03:22.714Z,7.62
2022-11-12T05:06:52.779Z,7.65
2022-11-12T05:10:13.738Z,7.63
2022-11-12T05:13:34.709Z,7.80
2022-11-12T05:16:55.757Z,7.77
2022-11-12T05:20:18.013Z,7.69
2022-11-12T05:23:39.085Z,7.89
2022-11-12T05:27:00.065Z,7.81
2022-11-12T05:30:22.349Z,7.86
2022-11-12T05:33:43.104Z,7.86
2022-11-12T05:37:06.002Z,7.85
2022-11-12T05:40:27.132Z,7.89
2022-11-12T05:43:48.275Z,7.76
2022-11-12T05:47:09.521Z,7.67
2022-11-12T05:50:39.767Z,7.66
2022-11-12T05:54:12.355Z,7.63
2022-11-12T05:57:33.232Z,7.72
2022-11-12T06:00:54.066Z,7.67
2022-11-12T06:04:15.325Z,7.72
2022-11-12T06:07:36.165Z,7.64
2022-11-12T06:10:57.071Z,7.86
2022-11-12T06:14:18.151Z,8.00
2022-11-12T06:17:39.045Z,7.94
2022-11-12T06:21:24.499Z,7.88
2022-11-12T06:24:45.506Z,7.90
2022-11-12T06:28:06.690Z,7.93
2022-11-12T06:31:28.098Z,8.10
2022-11-12T06:34:49.106Z,8.19
2022-11-12T06:38:09.951Z,8.18
2022-11-12T06:41:31.022Z,8.17
2022-11-12T06:44:52.028Z,8.30
2022-11-12T06:48:12.972Z,8.27
2022-11-12T06:51:34.557Z,8.44
2022-11-12T06:54:55.728Z,8.55
2022-11-12T06:58:17.012Z,8.56
2022-11-12T07:01:38.294Z,8.60
2022-11-12T07:04:59.138Z,8.68
2022-11-12T07:08:20.242Z,8.72
2022-11-12T07:11:41.674Z,8.73
2022-11-12T07:15:02.764Z,8.80
2022-11-12T07:18:28.302Z,8.84
2022-11-12T07:21:49.864Z,8.64
2022-11-12T07:25:10.757Z,8.61
2022-11-12T07:28:32.467Z,8.73
2022-11-12T07:31:53.677Z,8.72
2022-11-12T07:35:14.787Z,8.88
2022-11-12T07:38:40.357Z,8.94
2022-11-12T07:42:01.291Z,9.16
2022-11-12T07:45:22.263Z,9.13
2022-11-12T07:48:44.648Z,9.24
2022-11-12T07:52:05.799Z,9.34
2022-11-12T07:55:26.633Z,9.42
2022-11-12T07:58:48.430Z,9.40
2022-11-12T08:02:09.919Z,9.48
2022-11-12T08:05:30.906Z,9.47
2022-11-12T08:08:56.944Z,9.58
2022-11-12T08:12:17.755Z,9.63
2022-11-12T08:15:39.031Z,9.57
2022-11-12T08:19:00.894Z,9.65
2022-11-12T08:22:22.123Z,9.67
2022-11-12T08:25:43.030Z,9.83
2022-11-12T08:29:08.531Z,9.84
2022-11-12T08:32:30.329Z,9.90
2022-11-12T08:35:51.642Z,9.89
2022-11-12T08:39:12.438Z,9.96
2022-11-12T08:42:33.485Z,10.32
2022-11-12T08:45:54.632Z,10.19
2022-11-12T08:49:15.831Z,10.47
2022-11-12T08:52:36.735Z,10.66
2022-11-12T08:55:58.503Z,10.85
2022-11-12T08:59:19.594Z,10.96
2022-11-12T09:02:40.511Z,11.48
2022-11-12T09:06:05.601Z,11.37
2022-11-12T09:09:26.519Z,11.65
2022-11-12T09:12:51.310Z,11.96
2022-11-12T09:16:12.213Z,12.03
2022-11-12T09:19:34.363Z,12.40
2022-11-12T09:23:00.355Z,12.94
2022-11-12T09:26:21.499Z,13.14
2022-11-12T09:29:42.436Z,13.31
2022-11-12T09:33:03.177Z,13.26
2022-11-12T09:36:24.058Z,13.35
2022-11-12T09:39:45.970Z,13.43
2022-11-12T09:43:31.109Z,13.44
2022-11-12T09:46:57.659Z,13.34
2022-11-12T09:50:47.386Z,13.39
2022-11-12T09:54:27.277Z,13.34
2022-11-12T09:57:48.390Z,13.25
2022-11-12T10:01:18.382Z,13.06
2022-11-12T10:05:07.768Z,13.18
2022-11-12T10:08:35.651Z,13.01
2022-11-12T10:12:31.411Z,13.21
2022-11-12T10:16:20.950Z,13.31
2022-11-12T10:19:50.015Z,13.32
2022-11-12T10:23:16.243Z,13.24
2022-11-12T10:26:39.345Z,13.31
2022-11-12T10:30:13.613Z,13.45
2022-11-12T10:33:35.423Z,13.51
2022-11-12T10:37:07.394Z,13.52
2022-11-12T10:40:36.798Z,13.53
2022-11-12T10:44:05.891Z,13.47
2022-11-12T10:47:27.218Z,13.62
2022-11-12T10:50:48.585Z,13.67
2022-11-12T10:54:27.699Z,13.72
2022-11-12T10:58:21.587Z,13.54
2022-11-12T11:01:46.069Z,13.16
2022-11-12T11:05:31.724Z,13.25
2022-11-12T11:09:18.291Z,13.38
2022-11-12T11:12:39.335Z,13.57
2022-11-12T11:16:02.697Z,13.56
2022-11-12T11:19:39.169Z,13.60
2022-11-12T11:23:06.936Z,13.54
2022-11-12T11:27:04.743Z,13.57
2022-11-12T11:30:26.350Z,13.57
2022-11-12T11:33:53.117Z,13.46
2022-11-12T11:37:28.279Z,13.50
2022-11-12T11:41:18.794Z,13.26
2022-11-12T11:45:04.922Z,13.37
2022-11-12T11:49:20.328Z,13.52
2022-11-12T11:52:41.120Z,13.63
2022-11-12T11:56:27.277Z,13.68
2022-11-12T12:00:10.942Z,13.71
2022-11-12T12:03:39.877Z,13.58
2022-11-12T12:07:21.224Z,13.58
2022-11-12T12:14:41.266Z,13.67
2022-11-12T12:18:29.929Z,13.56
2022-11-12T12:21:52.460Z,13.59
2022-11-12T12:25:28.251Z,13.65
2022-11-12T12:29:03.213Z,13.79
2022-11-12T12:32:29.335Z,13.81
2022-11-12T12:35:59.708Z,14.10
2022-11-12T12:39:36.155Z,14.32
2022-11-12T12:43:35.060Z,14.46
2022-11-12T12:46:59.898Z,14.56
2022-11-12T12:50:22.346Z,14.57
2022-11-12T12:53:43.382Z,14.49
2022-11-12T12:57:04.828Z,14.48
2022-11-12T13:00:40.068Z,14.47
2022-11-12T13:04:08.762Z,14.53
2022-11-12T13:07:43.283Z,14.55
2022-11-12T13:11:04.313Z,14.55
2022-11-12T13:14:36.956Z,14.53
2022-11-12T13:17:57.974Z,14.59
2022-11-12T13:21:20.985Z,14.53
2022-11-12T13:25:00.188Z,14.45
2022-11-12T13:28:21.303Z,14.21
2022-11-12T13:31:42.147Z,14.00
2022-11-12T13:35:27.912Z,13.85
2022-11-12T13:38:49.418Z,13.90
2022-11-12T13:42:36.890Z,13.88
2022-11-12T13:46:07.205Z,13.91
2022-11-12T13:49:28.234Z,13.87
2022-11-12T13:52:49.940Z,13.77
2022-11-12T13:56:12.438Z,13.69
2022-11-12T13:59:33.862Z,13.69
2022-11-12T14:03:02.271Z,13.70
2022-11-12T14:06:37.630Z,13.74
2022-11-12T14:10:20.363Z,13.80
2022-11-12T14:13:55.958Z,13.79
2022-11-12T14:17:31.570Z,13.76
2022-11-12T14:20:52.983Z,13.69
2022-11-12T14:24:14.129Z,13.61
2022-11-12T14:27:36.293Z,13.50
2022-11-12T14:30:59.413Z,13.13
2022-11-12T14:34:29.388Z,13.22
2022-11-12T14:37:59.548Z,13.12
2022-11-12T14:41:25.544Z,12.99
2022-11-12T14:44:46.371Z,12.84
2022-11-12T14:48:09.537Z,12.69
2022-11-12T14:51:37.525Z,12.55
2022-11-12T14:55:07.592Z,12.42
2022-11-12T14:58:29.366Z,12.25
2022-11-12T15:02:34.631Z,12.10
2022-11-12T15:06:08.815Z,11.96
2022-11-12T15:09:35.844Z,11.46
2022-11-12T15:13:10.414Z,11.56
2022-11-12T15:16:34.323Z,11.41
2022-11-12T15:20:02.253Z,11.13
2022-11-12T15:23:23.911Z,11.08
2022-11-12T15:26:47.779Z,10.95
2022-11-12T15:30:20.486Z,10.76
2022-11-12T15:33:41.534Z,10.71
2022-11-12T15:37:11.751Z,10.60
2022-11-12T15:40:43.292Z,10.41
2022-11-12T15:44:05.413Z,10.33
2022-11-12T15:47:26.657Z,10.20
2022-11-12T15:50:48.639Z,9.97
2022-11-12T15:54:09.545Z,9.98
2022-11-12T15:57:34.297Z,9.87
2022-11-12T16:00:55.764Z,9.79
2022-11-12T16:04:17.074Z,9.76
2022-11-12T16:07:38.296Z,9.52
2022-11-12T16:11:00.243Z,9.46
2022-11-12T16:14:24.792Z,9.30
2022-11-12T16:17:47.139Z,9.21
2022-11-12T16:21:09.383Z,9.08
2022-11-12T16:24:30.110Z,8.79
2022-11-12T16:27:55.733Z,8.86
2022-11-12T16:31:16.788Z,8.78
2022-11-12T16:34:37.545Z,8.74
2022-11-12T16:37:58.565Z,8.50
2022-11-12T16:41:19.194Z,8.63
2022-11-12T16:44:40.481Z,8.49
2022-11-12T16:48:01.443Z,8.44
2022-11-12T16:51:23.133Z,8.27
2022-11-12T16:54:43.882Z,7.96
2022-11-12T16:58:05.003Z,7.97
2022-11-12T17:01:31.858Z,8.02
2022-11-12T17:04:52.877Z,8.04
2022-11-12T17:08:14.686Z,7.99
2022-11-12T17:11:36.251Z,7.68
2022-11-12T17:14:57.086Z,7.64
2022-11-12T17:18:17.995Z,7.56
2022-11-12T17:21:39.491Z,7.53
2022-11-12T17:25:00.881Z,7.46
2022-11-12T17:28:22.047Z,7.41
2022-11-12T17:31:43.377Z,7.41
2022-11-12T17:35:05.028Z,7.33
2022-11-12T17:38:26.552Z,7.33
2022-11-12T17:41:47.573Z,7.36
2022-11-12T17:45:08.873Z,7.18
2022-11-12T17:48:32.038Z,7.05
2022-11-12T17:51:53.271Z,7.10
2022-11-12T17:55:14.278Z,7.09
2022-11-12T17:58:36.106Z,6.74
2022-11-12T18:01:57.109Z,6.85
2022-11-12T18:05:18.271Z,6.76
2022-11-12T18:08:40.414Z,6.68
2022-11-12T18:12:01.943Z,6.62
2022-11-12T18:15:23.117Z,6.54
2022-11-12T18:18:44.343Z,6.56
2022-11-12T18:22:05.642Z,6.41
2022-11-12T18:25:27.330Z,6.43
2022-11-12T18:28:52.587Z,6.44
2022-11-12T18:32:14.342Z,6.36
2022-11-12T18:35:35.499Z,6.26
2022-11-12T18:38:57.239Z,6.22
2022-11-12T18:42:19.095Z,6.10
2022-11-12T18:45:40.310Z,6.09
2022-11-12T18:49:01.742Z,5.97
2022-11-12T18:52:23.144Z,5.91
2022-11-12T18:55:44.591Z,5.90
2022-11-12T18:59:06.742Z,5.86
2022-11-12T19:02:28.306Z,5.86
2022-11-12T19:05:49.426Z,5.77
2022-11-12T19:09:11.852Z,5.76
2022-11-12T19:12:33.467Z,5.71
2022-11-12T19:15:54.625Z,5.67
2022-11-12T19:19:15.847Z,5.63
2022-11-12T19:22:36.753Z,5.31
2022-11-12T19:26:00.702Z,5.15
2022-11-12T19:29:21.738Z,5.38
2022-11-12T19:32:42.999Z,5.31
2022-11-12T19:36:10.261Z,5.44
2022-11-12T19:39:30.984Z,5.28
2022-11-12T19:42:52.318Z,5.28
2022-11-12T19:46:14.529Z,5.26
2022-11-12T19:49:35.952Z,5.30
2022-11-12T19:52:57.573Z,5.20
2022-11-12T19:56:21.555Z,5.31
2022-11-12T19:59:42.944Z,5.21
2022-11-12T20:03:04.543Z,5.18
2022-11-12T20:06:27.232Z,4.98
2022-11-12T20:09:49.023Z,5.11
2022-11-12T20:13:10.605Z,5.08
2022-11-12T20:16:32.226Z,4.80
2022-11-12T20:19:53.503Z,5.02
2022-11-12T20:23:14.645Z,4.96
2022-11-12T20:26:36.232Z,4.79
2022-11-12T20:29:57.965Z,4.70
2022-11-12T20:33:19.206Z,4.70
2022-11-12T20:36:40.392Z,4.65
2022-11-12T20:40:02.231Z,4.60
2022-11-12T20:43:28.013Z,4.62
2022-11-12T20:46:50.562Z,4.66
2022-11-12T20:50:11.594Z,4.71
2022-11-12T20:53:33.255Z,4.67
2022-11-12T20:56:56.080Z,4.85
2022-11-12T21:00:22.931Z,4.63
2022-11-12T21:03:45.424Z,4.46
2022-11-12T21:07:06.849Z,4.35
2022-11-12T21:10:28.176Z,4.41
2022-11-12T21:13:49.675Z,4.37
2022-11-12T21:17:11.069Z,4.34
2022-11-12T21:20:32.498Z,4.26
2022-11-12T21:23:54.002Z,4.37
2022-11-12T21:27:15.011Z,4.38
2022-11-12T21:30:36.646Z,4.40
2022-11-12T21:34:00.544Z,4.11
2022-11-12T21:37:22.082Z,4.24
2022-11-12T21:40:44.923Z,4.15
2022-11-12T21:44:05.962Z,4.05
2022-11-12T21:47:26.984Z,4.14
2022-11-12T21:50:48.558Z,4.35
2022-11-12T21:54:10.684Z,4.14
2022-11-12T21:57:31.796Z,4.17
2022-11-12T22:00:53.080Z,4.10
2022-11-12T22:04:18.276Z,4.07
2022-11-12T22:07:39.469Z,3.99
2022-11-12T22:11:08.799Z,3.89
2022-11-12T22:14:29.711Z,3.90
2022-11-12T22:17:50.540Z,3.80
2022-11-12T22:21:13.993Z,3.69
2022-11-12T22:24:34.762Z,3.64
2022-11-12T22:27:55.570Z,3.61
2022-11-12T22:31:19.565Z,3.61
2022-11-12T22:34:40.725Z,3.59
2022-11-12T22:38:01.639Z,3.84
2022-11-12T22:41:25.508Z,3.65
2022-11-12T22:44:46.782Z,3.54
2022-11-12T22:48:07.863Z,3.68
2022-11-12T22:51:31.840Z,3.78
2022-11-12T22:54:52.622Z,3.80
2022-11-12T22:58:13.813Z,3.89
2022-11-12T23:01:36.259Z,3.77
2022-11-12T23:04:57.291Z,3.65
2022-11-12T23:08:18.202Z,3.51
2022-11-12T23:11:40.912Z,3.39
2022-11-12T23:15:01.842Z,3.34
2022-11-12T23:18:22.626Z,3.27
2022-11-12T23:21:43.610Z,3.30
2022-11-12T23:25:04.824Z,3.32
2022-11-12T23:28:25.983Z,3.30
2022-11-12T23:31:47.630Z,3.24
2022-11-12T23:35:09.204Z,3.14
2022-11-12T23:38:31.585Z,3.23
2022-11-12T23:41:52.509Z,3.22
2022-11-12T23:45:13.650Z,3.25
2022-11-12T23:48:34.860Z,3.27
2022-11-12T23:51:55.985Z,3.17
2022-11-12T23:55:17.072Z,3.13
2022-11-12T23:58:39.358Z,3.13
